N35LF EDML-EDMA
Flight info
| Callsign | N35LF |
|---|---|
| Flight time | 1h 0m |
| Altitude | 5000 |
| Route | VFR DCT ANKER/N0160A050 IFR T105 MIQ Z98 WLD DCT |
| Aircraft | BE35/L-BDFGLORY/S |
Departure
| Time | 2026-04-17 19:15 |
|---|---|
| Airport | Landshut Airfield (EDML) |
Arrival
| Time | 2026-04-17 20:15 |
|---|---|
| Airport | Augsburg Airport (EDMA) |
| Time | Latitude | Longitude | Altitude | Speed | Heading |
|---|---|---|---|---|---|
| 2026-04-17 18:59 | 48.51313 | 12.03587 | 1317 ft | 0 kts | 69° |
| 2026-04-17 19:07 | 48.51317 | 12.03610 | 1317 ft | 4 kts | 90° |
| 2026-04-17 19:07 | 48.51305 | 12.03631 | 1317 ft | 3 kts | 181° |
| 2026-04-17 19:07 | 48.51287 | 12.03592 | 1317 ft | 7 kts | 246° |
| 2026-04-17 19:07 | 48.51254 | 12.03478 | 1318 ft | 13 kts | 248° |
| 2026-04-17 19:08 | 48.51219 | 12.03359 | 1317 ft | 12 kts | 245° |
| 2026-04-17 19:08 | 48.51188 | 12.03252 | 1317 ft | 10 kts | 248° |
| 2026-04-17 19:08 | 48.51159 | 12.03156 | 1317 ft | 9 kts | 247° |
| 2026-04-17 19:08 | 48.51134 | 12.03065 | 1317 ft | 9 kts | 246° |
| 2026-04-17 19:09 | 48.51107 | 12.02978 | 1318 ft | 8 kts | 247° |
| 2026-04-17 19:09 | 48.51085 | 12.02895 | 1318 ft | 8 kts | 247° |
| 2026-04-17 19:09 | 48.51060 | 12.02814 | 1318 ft | 8 kts | 245° |
| 2026-04-17 19:09 | 48.51044 | 12.02771 | 1319 ft | 0 kts | 206° |
| 2026-04-17 19:10 | 48.51037 | 12.02772 | 1319 ft | 0 kts | 157° |
| 2026-04-17 19:13 | 48.51034 | 12.02774 | 1319 ft | 1 kts | 157° |
| 2026-04-17 19:14 | 48.51008 | 12.02797 | 1320 ft | 6 kts | 124° |
| 2026-04-17 19:14 | 48.51015 | 12.02839 | 1319 ft | 10 kts | 65° |
| 2026-04-17 19:14 | 48.51128 | 12.03228 | 1317 ft | 74 kts | 66° |
| 2026-04-17 19:14 | 48.51341 | 12.04086 | 1450 ft | 93 kts | 71° |
| 2026-04-17 19:15 | 48.51499 | 12.05045 | 1710 ft | 93 kts | 69° |
| 2026-04-17 19:15 | 48.51713 | 12.05949 | 1967 ft | 93 kts | 64° |
| 2026-04-17 19:15 | 48.52000 | 12.06813 | 2215 ft | 92 kts | 41° |
| 2026-04-17 19:15 | 48.52523 | 12.07372 | 2427 ft | 94 kts | 18° |
| 2026-04-17 19:16 | 48.53124 | 12.07836 | 2605 ft | 101 kts | 24° |
| 2026-04-17 19:16 | 48.53778 | 12.07906 | 2844 ft | 95 kts | 338° |
| 2026-04-17 19:16 | 48.54403 | 12.07547 | 3046 ft | 97 kts | 322° |
| 2026-04-17 19:16 | 48.54814 | 12.06756 | 3269 ft | 97 kts | 294° |
| 2026-04-17 19:17 | 48.55103 | 12.05831 | 3458 ft | 100 kts | 291° |
| 2026-04-17 19:17 | 48.55394 | 12.04864 | 3646 ft | 103 kts | 292° |
| 2026-04-17 19:17 | 48.55718 | 12.03888 | 3830 ft | 105 kts | 297° |
| 2026-04-17 19:17 | 48.56118 | 12.02949 | 4007 ft | 109 kts | 303° |
| 2026-04-17 19:18 | 48.56532 | 12.01911 | 4054 ft | 122 kts | 295° |
| 2026-04-17 19:18 | 48.56949 | 12.00718 | 4055 ft | 134 kts | 295° |
| 2026-04-17 19:18 | 48.57166 | 11.99329 | 4063 ft | 142 kts | 273° |
| 2026-04-17 19:18 | 48.57185 | 11.97802 | 4056 ft | 148 kts | 269° |
| 2026-04-17 19:19 | 48.57159 | 11.96227 | 4052 ft | 152 kts | 267° |
| 2026-04-17 19:19 | 48.57127 | 11.94636 | 4144 ft | 148 kts | 268° |
| 2026-04-17 19:19 | 48.57106 | 11.93117 | 4295 ft | 142 kts | 268° |
| 2026-04-17 19:19 | 48.57081 | 11.91652 | 4449 ft | 139 kts | 268° |
| 2026-04-17 19:20 | 48.57059 | 11.90216 | 4595 ft | 136 kts | 268° |
| 2026-04-17 19:20 | 48.57052 | 11.88803 | 4745 ft | 133 kts | 269° |
| 2026-04-17 19:20 | 48.57057 | 11.87417 | 4895 ft | 132 kts | 270° |
| 2026-04-17 19:20 | 48.57069 | 11.86040 | 5007 ft | 134 kts | 270° |
| 2026-04-17 19:21 | 48.57083 | 11.84598 | 5024 ft | 141 kts | 270° |
| 2026-04-17 19:21 | 48.57099 | 11.83085 | 5025 ft | 147 kts | 270° |
| 2026-04-17 19:21 | 48.57116 | 11.81526 | 5026 ft | 150 kts | 270° |
| 2026-04-17 19:21 | 48.57134 | 11.79933 | 5024 ft | 153 kts | 270° |
| 2026-04-17 19:22 | 48.57154 | 11.78319 | 5034 ft | 155 kts | 270° |
| 2026-04-17 19:22 | 48.57173 | 11.76674 | 5023 ft | 157 kts | 270° |
| 2026-04-17 19:22 | 48.57194 | 11.75017 | 5024 ft | 157 kts | 270° |
| 2026-04-17 19:22 | 48.57201 | 11.73382 | 5025 ft | 158 kts | 269° |
| 2026-04-17 19:23 | 48.57178 | 11.71724 | 5027 ft | 157 kts | 269° |
| 2026-04-17 19:23 | 48.57168 | 11.68436 | 5030 ft | 155 kts | 270° |
| 2026-04-17 19:23 | 48.57177 | 11.66827 | 5030 ft | 155 kts | 270° |
| 2026-04-17 19:24 | 48.57194 | 11.65196 | 5028 ft | 154 kts | 271° |
| 2026-04-17 19:24 | 48.57214 | 11.63574 | 5025 ft | 154 kts | 271° |
| 2026-04-17 19:24 | 48.57208 | 11.61975 | 5024 ft | 154 kts | 270° |
| 2026-04-17 19:24 | 48.57231 | 11.60361 | 5023 ft | 154 kts | 271° |
| 2026-04-17 19:25 | 48.57262 | 11.58741 | 5022 ft | 154 kts | 271° |
| 2026-04-17 19:25 | 48.57291 | 11.57142 | 5022 ft | 154 kts | 271° |
| 2026-04-17 19:25 | 48.57317 | 11.55527 | 5020 ft | 154 kts | 271° |
| 2026-04-17 19:25 | 48.57338 | 11.54148 | 5020 ft | 154 kts | 271° |
| 2026-04-17 19:26 | 48.57377 | 11.52525 | 5022 ft | 154 kts | 277° |
| 2026-04-17 19:26 | 48.57468 | 11.50907 | 5024 ft | 156 kts | 275° |
| 2026-04-17 19:26 | 48.57514 | 11.49292 | 5023 ft | 156 kts | 274° |
| 2026-04-17 19:26 | 48.57548 | 11.47640 | 5024 ft | 157 kts | 273° |
| 2026-04-17 19:27 | 48.57576 | 11.45978 | 5025 ft | 158 kts | 273° |
| 2026-04-17 19:27 | 48.57600 | 11.44344 | 5026 ft | 158 kts | 273° |
| 2026-04-17 19:27 | 48.57623 | 11.42673 | 5025 ft | 158 kts | 273° |
| 2026-04-17 19:27 | 48.57644 | 11.41021 | 5026 ft | 158 kts | 272° |
| 2026-04-17 19:28 | 48.57665 | 11.39346 | 5025 ft | 159 kts | 273° |
| 2026-04-17 19:28 | 48.57685 | 11.37681 | 5023 ft | 159 kts | 273° |
| 2026-04-17 19:28 | 48.57704 | 11.36026 | 5022 ft | 159 kts | 272° |
| 2026-04-17 19:28 | 48.57723 | 11.34344 | 5024 ft | 159 kts | 272° |
| 2026-04-17 19:29 | 48.57742 | 11.32681 | 5023 ft | 159 kts | 272° |
| 2026-04-17 19:29 | 48.57760 | 11.30991 | 5023 ft | 160 kts | 272° |
| 2026-04-17 19:29 | 48.57778 | 11.29325 | 5023 ft | 160 kts | 272° |
| 2026-04-17 19:29 | 48.57797 | 11.27642 | 5022 ft | 160 kts | 272° |
| 2026-04-17 19:30 | 48.57814 | 11.25969 | 5022 ft | 160 kts | 272° |
| 2026-04-17 19:30 | 48.57832 | 11.24278 | 5024 ft | 160 kts | 272° |
| 2026-04-17 19:30 | 48.57849 | 11.22582 | 5025 ft | 160 kts | 272° |
| 2026-04-17 19:30 | 48.57867 | 11.20915 | 5026 ft | 161 kts | 272° |
| 2026-04-17 19:31 | 48.57884 | 11.19218 | 5023 ft | 161 kts | 272° |
| 2026-04-17 19:31 | 48.57899 | 11.17544 | 5026 ft | 161 kts | 272° |
| 2026-04-17 19:31 | 48.57916 | 11.15859 | 5024 ft | 161 kts | 272° |
| 2026-04-17 19:31 | 48.57934 | 11.14175 | 5022 ft | 156 kts | 272° |
| 2026-04-17 19:32 | 48.57825 | 11.12532 | 5026 ft | 158 kts | 258° |
| 2026-04-17 19:32 | 48.57520 | 11.10943 | 5027 ft | 160 kts | 254° |
| 2026-04-17 19:32 | 48.57163 | 11.09339 | 5026 ft | 161 kts | 252° |
| 2026-04-17 19:32 | 48.56801 | 11.07752 | 5027 ft | 161 kts | 252° |
| 2026-04-17 19:33 | 48.56435 | 11.06138 | 5027 ft | 162 kts | 252° |
| 2026-04-17 19:33 | 48.56074 | 11.04537 | 5040 ft | 162 kts | 253° |
| 2026-04-17 19:33 | 48.55714 | 11.02936 | 5036 ft | 162 kts | 253° |
| 2026-04-17 19:33 | 48.55348 | 11.01302 | 5036 ft | 163 kts | 253° |
| 2026-04-17 19:34 | 48.54987 | 10.99693 | 5037 ft | 163 kts | 253° |
| 2026-04-17 19:34 | 48.54623 | 10.98068 | 4975 ft | 167 kts | 253° |
| 2026-04-17 19:34 | 48.54254 | 10.96414 | 4871 ft | 166 kts | 253° |
| 2026-04-17 19:34 | 48.53881 | 10.94749 | 4760 ft | 166 kts | 253° |
| 2026-04-17 19:35 | 48.53513 | 10.93112 | 4653 ft | 165 kts | 253° |
| 2026-04-17 19:35 | 48.53147 | 10.91481 | 4550 ft | 165 kts | 253° |
| 2026-04-17 19:35 | 48.52776 | 10.89832 | 4440 ft | 165 kts | 253° |
| 2026-04-17 19:35 | 48.52408 | 10.88202 | 4337 ft | 165 kts | 253° |
| 2026-04-17 19:36 | 48.52043 | 10.86581 | 4236 ft | 164 kts | 253° |
| 2026-04-17 19:36 | 48.51672 | 10.84935 | 4134 ft | 164 kts | 253° |
| 2026-04-17 19:36 | 48.51304 | 10.83306 | 4053 ft | 162 kts | 253° |
| 2026-04-17 19:36 | 48.50949 | 10.81737 | 4042 ft | 157 kts | 253° |
| 2026-04-17 19:37 | 48.50599 | 10.80192 | 4041 ft | 152 kts | 253° |
| 2026-04-17 19:37 | 48.50264 | 10.78717 | 4041 ft | 149 kts | 253° |
| 2026-04-17 19:37 | 48.49932 | 10.77253 | 4040 ft | 147 kts | 253° |
| 2026-04-17 19:37 | 48.49601 | 10.75795 | 4038 ft | 145 kts | 253° |
| 2026-04-17 19:38 | 48.49278 | 10.74376 | 4040 ft | 144 kts | 253° |
| 2026-04-17 19:38 | 48.48950 | 10.72936 | 4040 ft | 146 kts | 253° |
| 2026-04-17 19:38 | 48.48620 | 10.71486 | 4038 ft | 148 kts | 253° |
| 2026-04-17 19:38 | 48.48285 | 10.70003 | 4034 ft | 150 kts | 253° |
| 2026-04-17 19:39 | 48.47948 | 10.68519 | 4025 ft | 152 kts | 253° |
| 2026-04-17 19:39 | 48.47606 | 10.67013 | 4023 ft | 153 kts | 252° |
| 2026-04-17 19:39 | 48.47258 | 10.65487 | 4025 ft | 154 kts | 252° |
| 2026-04-17 19:39 | 48.46902 | 10.63964 | 4020 ft | 155 kts | 249° |
| 2026-04-17 19:40 | 48.46254 | 10.62688 | 4014 ft | 153 kts | 221° |
| 2026-04-17 19:40 | 48.45301 | 10.62007 | 4019 ft | 151 kts | 193° |
| 2026-04-17 19:40 | 48.44280 | 10.62070 | 4019 ft | 148 kts | 165° |
| 2026-04-17 19:40 | 48.43294 | 10.62531 | 4020 ft | 146 kts | 162° |
| 2026-04-17 19:41 | 48.42336 | 10.63028 | 4032 ft | 145 kts | 161° |
| 2026-04-17 19:41 | 48.41378 | 10.63529 | 4030 ft | 145 kts | 161° |
| 2026-04-17 19:41 | 48.40432 | 10.64019 | 4037 ft | 144 kts | 161° |
| 2026-04-17 19:41 | 48.39489 | 10.64505 | 4040 ft | 144 kts | 161° |
| 2026-04-17 19:42 | 48.38538 | 10.65001 | 4044 ft | 144 kts | 159° |
| 2026-04-17 19:42 | 48.37705 | 10.65832 | 4044 ft | 144 kts | 134° |
| 2026-04-17 19:42 | 48.37170 | 10.67084 | 3942 ft | 144 kts | 109° |
| 2026-04-17 19:42 | 48.37046 | 10.68562 | 3837 ft | 142 kts | 82° |
| 2026-04-17 19:43 | 48.37299 | 10.69972 | 3738 ft | 141 kts | 70° |
| 2026-04-17 19:43 | 48.37625 | 10.71369 | 3640 ft | 141 kts | 68° |
| 2026-04-17 19:43 | 48.37945 | 10.72754 | 3563 ft | 140 kts | 69° |
| 2026-04-17 19:43 | 48.38250 | 10.74108 | 3550 ft | 134 kts | 69° |
| 2026-04-17 19:44 | 48.38544 | 10.75420 | 3546 ft | 129 kts | 69° |
| 2026-04-17 19:44 | 48.38826 | 10.76678 | 3547 ft | 125 kts | 69° |
| 2026-04-17 19:44 | 48.39097 | 10.77885 | 3503 ft | 119 kts | 69° |
| 2026-04-17 19:44 | 48.39360 | 10.79063 | 3345 ft | 119 kts | 69° |
| 2026-04-17 19:45 | 48.39622 | 10.80228 | 3186 ft | 117 kts | 69° |
| 2026-04-17 19:45 | 48.39880 | 10.81373 | 3031 ft | 115 kts | 69° |
| 2026-04-17 19:45 | 48.40136 | 10.82512 | 2877 ft | 114 kts | 69° |
| 2026-04-17 19:45 | 48.40389 | 10.83640 | 2725 ft | 114 kts | 70° |
| 2026-04-17 19:46 | 48.40641 | 10.84765 | 2573 ft | 113 kts | 70° |
| 2026-04-17 19:46 | 48.40895 | 10.85900 | 2420 ft | 113 kts | 71° |
| 2026-04-17 19:46 | 48.41127 | 10.86949 | 2284 ft | 99 kts | 71° |
| 2026-04-17 19:46 | 48.41339 | 10.87881 | 2155 ft | 92 kts | 70° |
| 2026-04-17 19:47 | 48.41544 | 10.88787 | 2041 ft | 90 kts | 71° |
| 2026-04-17 19:47 | 48.41740 | 10.89674 | 1917 ft | 86 kts | 72° |
| 2026-04-17 19:47 | 48.41926 | 10.90504 | 1805 ft | 83 kts | 71° |
| 2026-04-17 19:47 | 48.42111 | 10.91327 | 1696 ft | 82 kts | 71° |
| 2026-04-17 19:48 | 48.42292 | 10.92151 | 1556 ft | 82 kts | 73° |
| 2026-04-17 19:48 | 48.42444 | 10.92829 | 1511 ft | 56 kts | 73° |
| 2026-04-17 19:48 | 48.42565 | 10.93381 | 1513 ft | 71 kts | 68° |
| 2026-04-17 19:48 | 48.42724 | 10.94205 | 1696 ft | 84 kts | 78° |
| 2026-04-17 19:49 | 48.42818 | 10.95094 | 1931 ft | 91 kts | 82° |
| 2026-04-17 19:49 | 48.42937 | 10.96095 | 2129 ft | 103 kts | 69° |
| 2026-04-17 19:49 | 48.43243 | 10.97139 | 2318 ft | 114 kts | 64° |
| 2026-04-17 19:49 | 48.43562 | 10.98280 | 2508 ft | 120 kts | 66° |
| 2026-04-17 19:50 | 48.43858 | 10.99453 | 2702 ft | 122 kts | 68° |
| 2026-04-17 19:50 | 48.44142 | 11.00666 | 2900 ft | 123 kts | 68° |
| 2026-04-17 19:50 | 48.44436 | 11.01868 | 3098 ft | 124 kts | 67° |
| 2026-04-17 19:50 | 48.44724 | 11.03095 | 3292 ft | 124 kts | 67° |
| 2026-04-17 19:51 | 48.45006 | 11.04330 | 3485 ft | 124 kts | 68° |
| 2026-04-17 19:51 | 48.45280 | 11.05549 | 3676 ft | 124 kts | 68° |
| 2026-04-17 19:51 | 48.45554 | 11.06774 | 3870 ft | 123 kts | 68° |
| 2026-04-17 19:51 | 48.45903 | 11.07937 | 4069 ft | 120 kts | 45° |
| 2026-04-17 19:52 | 48.46592 | 11.08532 | 4260 ft | 116 kts | 8° |
| 2026-04-17 19:52 | 48.47407 | 11.08478 | 4395 ft | 119 kts | 350° |
| 2026-04-17 19:52 | 48.48248 | 11.08247 | 4522 ft | 124 kts | 346° |
| 2026-04-17 19:52 | 48.49092 | 11.07978 | 4646 ft | 127 kts | 346° |
| 2026-04-17 19:53 | 48.49921 | 11.07509 | 4775 ft | 128 kts | 324° |
| 2026-04-17 19:53 | 48.50502 | 11.06505 | 4904 ft | 130 kts | 297° |
| 2026-04-17 19:53 | 48.50867 | 11.05264 | 5020 ft | 132 kts | 292° |
| 2026-04-17 19:53 | 48.51203 | 11.03919 | 5047 ft | 140 kts | 291° |
| 2026-04-17 19:54 | 48.51548 | 11.02517 | 5049 ft | 146 kts | 291° |
| 2026-04-17 19:54 | 48.51916 | 11.01045 | 5046 ft | 151 kts | 291° |
| 2026-04-17 19:54 | 48.52292 | 10.99553 | 5044 ft | 154 kts | 292° |
| 2026-04-17 19:54 | 48.52861 | 10.98239 | 5031 ft | 152 kts | 324° |
| 2026-04-17 19:55 | 48.53866 | 10.97905 | 5030 ft | 149 kts | 8° |
| 2026-04-17 19:55 | 48.54720 | 10.98724 | 5029 ft | 152 kts | 52° |
| 2026-04-17 19:55 | 48.55159 | 11.00190 | 5037 ft | 152 kts | 68° |
| 2026-04-17 19:55 | 48.55485 | 11.01695 | 5037 ft | 152 kts | 71° |
| 2026-04-17 19:56 | 48.55794 | 11.03225 | 5037 ft | 152 kts | 70° |
| 2026-04-17 19:56 | 48.56115 | 11.04748 | 5036 ft | 152 kts | 70° |
| 2026-04-17 19:56 | 48.56445 | 11.06264 | 5036 ft | 152 kts | 69° |
| 2026-04-17 19:56 | 48.56777 | 11.07764 | 5036 ft | 152 kts | 69° |
| 2026-04-17 19:57 | 48.57117 | 11.09281 | 5036 ft | 152 kts | 68° |
| 2026-04-17 19:57 | 48.57457 | 11.10793 | 5035 ft | 151 kts | 68° |
| 2026-04-17 19:57 | 48.57726 | 11.12308 | 5026 ft | 153 kts | 85° |
| 2026-04-17 19:57 | 48.57364 | 11.13792 | 5025 ft | 155 kts | 131° |
| 2026-04-17 19:58 | 48.56410 | 11.14467 | 5027 ft | 154 kts | 178° |
| 2026-04-17 19:58 | 48.55443 | 11.13943 | 5028 ft | 150 kts | 223° |
| 2026-04-17 19:58 | 48.55013 | 11.12580 | 5028 ft | 145 kts | 268° |
| 2026-04-17 19:58 | 48.55335 | 11.11196 | 5029 ft | 142 kts | 311° |
| 2026-04-17 19:59 | 48.56030 | 11.10145 | 5037 ft | 142 kts | 314° |
| 2026-04-17 19:59 | 48.56738 | 11.09077 | 5037 ft | 143 kts | 315° |
| 2026-04-17 19:59 | 48.57447 | 11.08009 | 5038 ft | 144 kts | 315° |
| 2026-04-17 19:59 | 48.58145 | 11.06953 | 5036 ft | 144 kts | 315° |
| 2026-04-17 20:00 | 48.58888 | 11.05928 | 5030 ft | 144 kts | 328° |
| 2026-04-17 20:00 | 48.59860 | 11.05689 | 5029 ft | 145 kts | 10° |
| 2026-04-17 20:00 | 48.60674 | 11.06535 | 5023 ft | 149 kts | 54° |
| 2026-04-17 20:00 | 48.60868 | 11.08062 | 5018 ft | 152 kts | 99° |
| 2026-04-17 20:01 | 48.60351 | 11.09459 | 5025 ft | 154 kts | 128° |
| 2026-04-17 20:01 | 48.59620 | 11.10622 | 5026 ft | 155 kts | 135° |
| 2026-04-17 20:01 | 48.58837 | 11.11742 | 5026 ft | 155 kts | 135° |
| 2026-04-17 20:01 | 48.58058 | 11.12887 | 5025 ft | 155 kts | 136° |
| 2026-04-17 20:02 | 48.57101 | 11.13531 | 5019 ft | 154 kts | 176° |
| 2026-04-17 20:02 | 48.56115 | 11.13051 | 5018 ft | 150 kts | 221° |
| 2026-04-17 20:02 | 48.55650 | 11.11712 | 5019 ft | 145 kts | 266° |
| 2026-04-17 20:02 | 48.55936 | 11.10298 | 5020 ft | 143 kts | 308° |
| 2026-04-17 20:03 | 48.56596 | 11.09191 | 5027 ft | 143 kts | 314° |
| 2026-04-17 20:03 | 48.57302 | 11.08136 | 5028 ft | 143 kts | 316° |
| 2026-04-17 20:03 | 48.58024 | 11.07077 | 5028 ft | 144 kts | 315° |
| 2026-04-17 20:03 | 48.58739 | 11.06021 | 5028 ft | 144 kts | 317° |
| 2026-04-17 20:04 | 48.59645 | 11.05446 | 5019 ft | 144 kts | 356° |
| 2026-04-17 20:04 | 48.60571 | 11.05965 | 5018 ft | 147 kts | 39° |
| 2026-04-17 20:04 | 48.61000 | 11.07339 | 5017 ft | 151 kts | 84° |
| 2026-04-17 20:04 | 48.60674 | 11.08834 | 5022 ft | 154 kts | 123° |
| 2026-04-17 20:05 | 48.59972 | 11.10061 | 5025 ft | 154 kts | 135° |
| 2026-04-17 20:05 | 48.59194 | 11.11172 | 5026 ft | 155 kts | 136° |
| 2026-04-17 20:05 | 48.58400 | 11.12294 | 4984 ft | 157 kts | 136° |
| 2026-04-17 20:05 | 48.57529 | 11.13291 | 4874 ft | 158 kts | 158° |
| 2026-04-17 20:06 | 48.56470 | 11.13343 | 4746 ft | 156 kts | 201° |
| 2026-04-17 20:06 | 48.55421 | 11.13261 | 4596 ft | 159 kts | 163° |
| 2026-04-17 20:06 | 48.54364 | 11.13640 | 4581 ft | 152 kts | 171° |
| 2026-04-17 20:06 | 48.53339 | 11.14019 | 4461 ft | 155 kts | 165° |
| 2026-04-17 20:07 | 48.52290 | 11.14464 | 4336 ft | 157 kts | 165° |
| 2026-04-17 20:07 | 48.51236 | 11.14866 | 4212 ft | 158 kts | 167° |
| 2026-04-17 20:07 | 48.50155 | 11.15244 | 4087 ft | 159 kts | 168° |
| 2026-04-17 20:07 | 48.49086 | 11.15536 | 4030 ft | 152 kts | 180° |
| 2026-04-17 20:08 | 48.48082 | 11.15210 | 3926 ft | 146 kts | 208° |
| 2026-04-17 20:08 | 48.47315 | 11.14278 | 3798 ft | 141 kts | 233° |
| 2026-04-17 20:08 | 48.46918 | 11.12953 | 3673 ft | 137 kts | 253° |
| 2026-04-17 20:08 | 48.46625 | 11.11606 | 3558 ft | 135 kts | 254° |
| 2026-04-17 20:09 | 48.46340 | 11.10276 | 3532 ft | 129 kts | 253° |
| 2026-04-17 20:09 | 48.46057 | 11.09014 | 3531 ft | 127 kts | 253° |
| 2026-04-17 20:09 | 48.45776 | 11.07748 | 3533 ft | 126 kts | 253° |
| 2026-04-17 20:09 | 48.45501 | 11.06510 | 3457 ft | 126 kts | 253° |
| 2026-04-17 20:10 | 48.45216 | 11.05227 | 3280 ft | 131 kts | 253° |
| 2026-04-17 20:10 | 48.44929 | 11.03939 | 3088 ft | 130 kts | 253° |
| 2026-04-17 20:10 | 48.44642 | 11.02646 | 2893 ft | 130 kts | 253° |
| 2026-04-17 20:10 | 48.44357 | 11.01370 | 2699 ft | 130 kts | 253° |
| 2026-04-17 20:11 | 48.44072 | 11.00090 | 2501 ft | 127 kts | 253° |
| 2026-04-17 20:11 | 48.43795 | 10.98848 | 2307 ft | 123 kts | 253° |
| 2026-04-17 20:11 | 48.43526 | 10.97652 | 2133 ft | 119 kts | 252° |
| 2026-04-17 20:11 | 48.43388 | 10.96514 | 2123 ft | 105 kts | 281° |
| 2026-04-17 20:12 | 48.43742 | 10.95604 | 2134 ft | 101 kts | 311° |
| 2026-04-17 20:12 | 48.44230 | 10.94846 | 2137 ft | 100 kts | 312° |
| 2026-04-17 20:12 | 48.44452 | 10.93891 | 2141 ft | 99 kts | 265° |
| 2026-04-17 20:12 | 48.44303 | 10.92881 | 2154 ft | 99 kts | 255° |
| 2026-04-17 20:13 | 48.44108 | 10.91873 | 2143 ft | 100 kts | 255° |
| 2026-04-17 20:13 | 48.43913 | 10.90913 | 2132 ft | 93 kts | 254° |
| 2026-04-17 20:13 | 48.43696 | 10.90029 | 2131 ft | 88 kts | 236° |
| 2026-04-17 20:13 | 48.43183 | 10.89560 | 2142 ft | 89 kts | 188° |
| 2026-04-17 20:14 | 48.42551 | 10.89685 | 2145 ft | 96 kts | 165° |
| 2026-04-17 20:14 | 48.42067 | 10.90303 | 2047 ft | 92 kts | 111° |
| 2026-04-17 20:14 | 48.42084 | 10.91235 | 1776 ft | 90 kts | 71° |
| 2026-04-17 20:14 | 48.42275 | 10.92078 | 1565 ft | 83 kts | 71° |
| 2026-04-17 20:15 | 48.42437 | 10.92795 | 1511 ft | 58 kts | 68° |
| 2026-04-17 20:15 | 48.42546 | 10.93290 | 1513 ft | 44 kts | 71° |
| 2026-04-17 20:15 | 48.42599 | 10.93532 | 1512 ft | 11 kts | 71° |
| 2026-04-17 20:15 | 48.42590 | 10.93622 | 1513 ft | 10 kts | 158° |
| 2026-04-17 20:16 | 48.42539 | 10.93558 | 1513 ft | 12 kts | 251° |
| 2026-04-17 20:16 | 48.42509 | 10.93429 | 1514 ft | 13 kts | 252° |
| 2026-04-17 20:16 | 48.42478 | 10.93285 | 1514 ft | 15 kts | 252° |
| 2026-04-17 20:16 | 48.42442 | 10.93124 | 1514 ft | 17 kts | 251° |
| 2026-04-17 20:17 | 48.42401 | 10.92941 | 1513 ft | 18 kts | 252° |
| 2026-04-17 20:17 | 48.42358 | 10.92749 | 1511 ft | 19 kts | 251° |
| 2026-04-17 20:17 | 48.42318 | 10.92568 | 1511 ft | 18 kts | 255° |
| 2026-04-17 20:17 | 48.42287 | 10.92428 | 1511 ft | 7 kts | 253° |
| 2026-04-17 20:18 | 48.42246 | 10.92412 | 1511 ft | 11 kts | 160° |
| 2026-04-17 20:18 | 48.42156 | 10.92456 | 1511 ft | 12 kts | 161° |
| 2026-04-17 20:18 | 48.42107 | 10.92458 | 1513 ft | 2 kts | 227° |
| 2026-04-17 20:18 | 48.42132 | 10.92416 | 1512 ft | 6 kts | 14° |
| 2026-04-17 20:19 | 48.42142 | 10.92432 | 1512 ft | 0 kts | 62° |